Time;durP1;ratioP1;P1;durP2;ratioP2;P2;SDS_P1;SDS_P2;PMS_P1;PMS_P2;Temp;Humidity;BMP_temperature;BMP_pressure;BME280_temperature;BME280_humidity;BME280_pressure;Samples;Min_cycle;Max_cycle;Signal;HPM_P1;HPM_P2
2022/01/26 00:07:49;;;;;;;107.53;43.63;;;-0.70;99.90;;;;;;5078829;28;20036;-67
2022/01/26 00:10:15;;;;;;;99.53;41.40;;;-0.70;99.90;;;;;;5067414;28;20033;-67
2022/01/26 00:12:41;;;;;;;106.85;42.65;;;-0.70;99.90;;;;;;5086125;28;20086;-67
2022/01/26 00:15:07;;;;;;;101.88;41.35;;;-0.70;99.90;;;;;;5091799;28;20032;-67
2022/01/26 00:17:32;;;;;;;107.18;43.05;;;-0.70;99.90;;;;;;5091149;28;20042;-66
2022/01/26 00:20:12;;;;;;;108.28;43.40;;;-0.60;99.90;;;;;;5079886;28;20042;-67
2022/01/26 00:38:45;;;;;;;121.63;44.70;;;-0.50;99.90;;;;;;5075552;28;20477;-66
2022/01/26 00:41:16;;;;;;;121.40;42.90;;;-0.50;99.90;;;;;;5085529;28;20283;-66
2022/01/26 00:43:49;;;;;;;107.45;42.92;;;-0.50;99.90;;;;;;5059149;28;20033;-66
2022/01/26 00:46:15;;;;;;;106.72;42.22;;;-0.50;99.90;;;;;;5085954;28;20107;-66
2022/01/26 00:48:42;;;;;;;117.45;44.95;;;-0.50;99.90;;;;;;5071271;28;20393;-66
2022/01/26 00:51:09;;;;;;;118.63;45.40;;;-0.40;99.90;;;;;;5088816;28;20028;-66
2022/01/26 00:53:41;;;;;;;113.32;45.03;;;-0.40;99.90;;;;;;5083442;28;20028;-66
2022/01/26 00:56:07;;;;;;;136.27;48.85;;;-0.40;99.90;;;;;;5080663;28;20056;-68
2022/01/26 00:58:33;;;;;;;122.40;45.05;;;-0.50;99.90;;;;;;5090937;28;20063;-68
2022/01/26 01:01:01;;;;;;;109.28;43.78;;;-0.50;99.90;;;;;;5080538;28;20039;-68
2022/01/26 01:03:28;;;;;;;123.25;46.25;;;-0.50;99.90;;;;;;5085711;28;20082;-68
2022/01/26 01:05:59;;;;;;;123.53;45.03;;;-0.50;99.90;;;;;;5076095;28;20032;-68
2022/01/26 01:08:26;;;;;;;120.75;46.25;;;-0.50;99.90;;;;;;5068697;28;20033;-68
2022/01/26 01:10:54;;;;;;;142.05;49.17;;;-0.60;99.90;;;;;;5073917;28;20094;-68
2022/01/26 01:13:29;;;;;;;139.82;49.35;;;-0.60;99.90;;;;;;5070238;28;20033;-68
2022/01/26 01:15:55;;;;;;;150.00;52.10;;;-0.60;99.90;;;;;;5071827;28;20044;-68
2022/01/26 01:18:32;;;;;;;143.10;50.53;;;-0.60;99.90;;;;;;5072565;28;20033;-68
2022/01/26 01:31:39;;;;;;;127.10;45.38;;;-0.40;99.90;;;;;;5072625;28;20094;-66
2022/01/26 01:34:03;;;;;;;131.77;47.15;;;-0.40;99.90;;;;;;5067870;28;20037;-67
2022/01/26 01:36:29;;;;;;;117.90;44.90;;;-0.40;99.90;;;;;;5070633;28;20158;-68
2022/01/26 01:38:55;;;;;;;114.00;43.20;;;-0.40;99.90;;;;;;5089750;28;20034;-67
2022/01/26 01:41:21;;;;;;;121.50;45.85;;;-0.40;99.90;;;;;;5081463;28;20479;-67
2022/01/26 01:43:47;;;;;;;120.82;44.83;;;-0.40;99.90;;;;;;5083936;28;20028;-66
2022/01/26 01:46:12;;;;;;;118.07;43.10;;;-0.40;99.90;;;;;;5078821;28;20024;-67
2022/01/26 01:48:38;;;;;;;122.38;42.75;;;-0.40;99.90;;;;;;5089999;28;20057;-66
2022/01/26 01:51:08;;;;;;;119.65;42.30;;;-0.40;99.90;;;;;;5076078;28;20035;-66
2022/01/26 01:53:39;;;;;;;121.93;43.72;;;-0.50;99.90;;;;;;5079379;28;20083;-66
2022/01/26 01:56:06;;;;;;;112.88;43.47;;;-0.40;99.90;;;;;;5082005;28;20024;-68
2022/01/26 01:58:32;;;;;;;121.05;44.80;;;-0.40;99.90;;;;;;5076577;28;20421;-66
2022/01/26 02:00:58;;;;;;;114.30;43.13;;;-0.40;99.90;;;;;;5089352;28;20025;-69
2022/01/26 02:03:25;;;;;;;114.57;41.42;;;-0.30;99.90;;;;;;5082035;28;20475;-68
2022/01/26 02:05:51;;;;;;;118.00;43.92;;;-0.30;99.90;;;;;;5072474;28;20029;-66
2022/01/26 02:08:17;;;;;;;116.90;44.28;;;-0.50;99.90;;;;;;5085203;28;20028;-66
2022/01/26 02:10:43;;;;;;;112.57;41.63;;;-0.50;99.90;;;;;;5076553;28;20063;-66
2022/01/26 02:13:19;;;;;;;107.03;39.50;;;-0.50;99.90;;;;;;5086688;28;20021;-66
2022/01/26 02:16:01;;;;;;;100.63;38.67;;;-0.50;99.90;;;;;;5084498;28;20119;-66
2022/01/26 02:54:00;;;;;;;72.13;31.27;;;-1.10;99.90;;;;;;5091418;28;20112;-66
2022/01/26 03:04:08;;;;;;;73.40;31.33;;;-1.10;99.90;;;;;;5080452;28;20057;-66
2022/01/26 03:06:49;;;;;;;76.07;31.35;;;-1.20;99.90;;;;;;5088843;28;20081;-66
2022/01/26 03:09:19;;;;;;;74.75;31.13;;;-1.20;99.90;;;;;;5069573;28;20032;-66
2022/01/26 03:11:46;;;;;;;75.53;32.55;;;-1.10;99.90;;;;;;5087734;28;20194;-68
2022/01/26 03:16:50;;;;;;;75.97;31.90;;;-1.20;99.90;;;;;;5088160;28;20031;-66
2022/01/26 03:19:23;;;;;;;81.38;34.40;;;-1.20;99.90;;;;;;5079746;28;20115;-67
2022/01/26 03:34:53;;;;;;;71.10;30.63;;;-1.20;99.90;;;;;;5076295;28;20035;-66
2022/01/26 03:37:21;;;;;;;75.00;30.40;;;-1.10;99.90;;;;;;5083331;28;20483;-66
2022/01/26 03:39:47;;;;;;;70.20;29.23;;;-1.10;99.90;;;;;;5081966;28;20031;-66
2022/01/26 03:42:16;;;;;;;73.47;31.75;;;-1.20;99.90;;;;;;5070380;28;20527;-66
2022/01/26 03:44:42;;;;;;;66.45;27.90;;;-1.20;99.90;;;;;;5074527;28;20039;-67
2022/01/26 03:47:09;;;;;;;61.83;27.42;;;-1.10;99.90;;;;;;5085648;28;20107;-67
2022/01/26 03:49:35;;;;;;;61.85;27.23;;;-1.00;99.90;;;;;;5081077;28;20032;-67
2022/01/26 03:52:03;;;;;;;60.45;26.83;;;-1.00;99.90;;;;;;5078353;28;20044;-67
2022/01/26 03:54:29;;;;;;;60.97;25.85;;;-1.10;99.90;;;;;;5087906;28;20030;-66
2022/01/26 03:56:54;;;;;;;68.78;28.13;;;-1.10;99.90;;;;;;5072717;28;20024;-67
2022/01/26 03:59:20;;;;;;;60.63;25.67;;;-1.20;99.90;;;;;;5065055;28;20040;-67
2022/01/26 04:01:46;;;;;;;67.78;27.80;;;-1.20;99.90;;;;;;5082129;28;20029;-68
2022/01/26 04:04:11;;;;;;;70.60;28.05;;;-1.30;99.90;;;;;;5081884;28;20031;-68
2022/01/26 04:06:37;;;;;;;66.75;28.08;;;-1.30;99.90;;;;;;5074825;28;20372;-67
2022/01/26 04:09:07;;;;;;;70.82;28.95;;;-1.30;99.90;;;;;;5086288;28;20385;-67
2022/01/26 04:11:38;;;;;;;68.18;28.10;;;-1.30;99.90;;;;;;5079282;28;20047;-67
2022/01/26 04:14:08;;;;;;;67.22;27.88;;;-1.30;99.90;;;;;;5080244;28;20107;-67
2022/01/26 04:16:34;;;;;;;73.30;30.27;;;-1.30;99.90;;;;;;5067840;28;20054;-68
2022/01/26 04:19:00;;;;;;;75.13;29.20;;;-1.40;99.90;;;;;;5075354;28;20311;-68
2022/01/26 04:24:01;;;;;;;76.53;29.48;;;-1.40;99.90;;;;;;5083486;28;20032;-68
2022/01/26 04:26:36;;;;;;;70.00;27.08;;;-1.40;99.90;;;;;;5074088;28;20112;-68
2022/01/26 04:29:08;;;;;;;78.93;30.15;;;-1.40;99.90;;;;;;5084709;28;20390;-66
2022/01/26 04:31:34;;;;;;;67.60;27.35;;;-1.40;99.90;;;;;;5065462;28;20047;-67
2022/01/26 04:33:59;;;;;;;83.70;31.50;;;-1.40;99.90;;;;;;5078349;28;20122;-67
2022/01/26 04:36:32;;;;;;;74.55;28.90;;;-1.40;99.90;;;;;;5074739;28;20086;-67
2022/01/26 04:39:02;;;;;;;74.50;28.65;;;-1.40;99.90;;;;;;5086903;28;20029;-66
2022/01/26 04:41:53;;;;;;;79.82;29.55;;;-1.40;99.90;;;;;;5073044;28;20032;-66
2022/01/26 04:44:21;;;;;;;80.63;29.85;;;-1.40;99.90;;;;;;5086599;28;20067;-67
2022/01/26 04:46:46;;;;;;;83.47;29.73;;;-1.40;99.90;;;;;;5070520;28;20073;-67
2022/01/26 04:49:12;;;;;;;80.07;28.38;;;-1.40;99.90;;;;;;5064894;28;20028;-67
2022/01/26 04:51:38;;;;;;;83.90;30.10;;;-1.40;99.90;;;;;;5079719;28;20035;-66
2022/01/26 04:54:04;;;;;;;85.88;30.33;;;-1.40;99.90;;;;;;5085453;28;20029;-68
2022/01/26 04:56:29;;;;;;;89.45;31.98;;;-1.40;99.90;;;;;;5068580;28;20044;-66
2022/01/26 04:58:56;;;;;;;86.38;31.48;;;-1.40;99.90;;;;;;5087070;28;20412;-67
2022/01/26 05:01:22;;;;;;;83.60;31.13;;;-1.30;99.90;;;;;;5079405;28;20416;-67
2022/01/26 05:03:47;;;;;;;96.28;33.00;;;-1.30;99.90;;;;;;5079062;28;20021;-66
2022/01/26 05:06:13;;;;;;;80.82;29.80;;;-1.30;99.90;;;;;;5086260;28;20059;-66
2022/01/26 05:08:39;;;;;;;84.80;30.73;;;-1.30;99.90;;;;;;5075853;28;20056;-66
2022/01/26 05:11:07;;;;;;;79.18;30.08;;;-1.30;99.90;;;;;;5086750;28;20101;-66
2022/01/26 05:13:32;;;;;;;87.47;30.95;;;-1.30;99.90;;;;;;5083353;28;20028;-66
2022/01/26 05:15:58;;;;;;;82.57;28.98;;;-1.30;99.90;;;;;;5081574;28;20052;-67
2022/01/26 05:18:24;;;;;;;80.95;29.77;;;-1.30;99.90;;;;;;5091289;28;20448;-67
2022/01/26 05:20:51;;;;;;;86.93;31.63;;;-1.30;99.90;;;;;;5077800;28;20060;-67
2022/01/26 05:23:16;;;;;;;83.35;30.80;;;-1.20;99.90;;;;;;5087158;28;20025;-67
2022/01/26 05:25:42;;;;;;;86.35;32.22;;;-1.20;99.90;;;;;;5079135;28;20362;-67
2022/01/26 05:28:08;;;;;;;84.55;29.95;;;-1.20;99.90;;;;;;5088955;28;20028;-67
2022/01/26 05:30:34;;;;;;;83.47;29.35;;;-1.30;99.90;;;;;;5091454;28;20044;-68
2022/01/26 05:33:00;;;;;;;91.20;29.08;;;-1.20;99.90;;;;;;5079643;28;20039;-69
2022/01/26 05:35:25;;;;;;;82.82;31.83;;;-1.20;99.90;;;;;;5085218;28;20376;-69
2022/01/26 05:37:51;;;;;;;95.30;32.33;;;-1.20;99.90;;;;;;5076568;28;20029;-69
2022/01/26 05:40:17;;;;;;;89.22;30.42;;;-1.20;99.90;;;;;;5085273;28;20047;-68
2022/01/26 05:42:43;;;;;;;82.50;32.25;;;-1.20;99.90;;;;;;5066264;28;20456;-68
2022/01/26 05:45:20;;;;;;;91.50;31.38;;;-1.20;99.90;;;;;;5087941;28;20060;-68
2022/01/26 05:47:45;;;;;;;82.63;30.40;;;-1.20;99.90;;;;;;5085320;28;20032;-68
2022/01/26 05:50:11;;;;;;;91.45;30.17;;;-1.20;99.90;;;;;;5079170;28;20085;-69
2022/01/26 05:52:37;;;;;;;87.38;29.42;;;-1.20;99.90;;;;;;5089917;28;20020;-69
2022/01/26 05:55:03;;;;;;;90.05;33.20;;;-1.20;99.90;;;;;;5074135;28;20081;-69
2022/01/26 05:57:28;;;;;;;81.18;31.20;;;-1.20;99.90;;;;;;5071482;28;20028;-68
2022/01/26 05:59:55;;;;;;;89.97;32.42;;;-1.10;99.90;;;;;;5081391;28;20103;-69
2022/01/26 06:02:20;;;;;;;87.13;31.15;;;-1.10;99.90;;;;;;5089735;28;20111;-69
2022/01/26 06:04:46;;;;;;;88.38;31.17;;;-1.10;99.90;;;;;;5076741;28;20103;-68
2022/01/26 06:07:12;;;;;;;87.55;30.33;;;-1.10;99.90;;;;;;5079756;28;20024;-68
2022/01/26 06:09:37;;;;;;;90.93;30.85;;;-1.10;99.90;;;;;;5082021;28;20047;-69
2022/01/26 06:12:04;;;;;;;85.05;30.98;;;-1.10;99.90;;;;;;5087706;28;20024;-68
2022/01/26 06:14:30;;;;;;;91.35;32.40;;;-1.10;99.90;;;;;;5076396;28;20485;-68
2022/01/26 06:16:55;;;;;;;95.30;32.53;;;-1.10;99.90;;;;;;5089148;28;20031;-67
2022/01/26 06:19:21;;;;;;;90.05;31.65;;;-1.10;99.90;;;;;;5081175;28;20085;-68
2022/01/26 06:21:46;;;;;;;84.10;31.58;;;-1.10;99.90;;;;;;5080932;28;20457;-68
2022/01/26 06:24:12;;;;;;;84.68;31.05;;;-1.10;99.90;;;;;;5088332;28;20028;-68
2022/01/26 06:26:40;;;;;;;72.10;29.67;;;-1.10;99.90;;;;;;5088186;28;20024;-70
2022/01/26 06:29:06;;;;;;;74.22;29.50;;;-1.00;99.90;;;;;;5079004;28;20056;-68
2022/01/26 06:31:34;;;;;;;84.50;28.50;;;-1.00;99.90;;;;;;5082117;28;20456;-68
2022/01/26 06:34:02;;;;;;;85.07;29.05;;;-1.00;99.90;;;;;;5080052;28;20381;-68
2022/01/26 06:36:28;;;;;;;87.35;31.85;;;-1.00;99.90;;;;;;5088916;28;20457;-68
2022/01/26 06:38:55;;;;;;;79.80;29.73;;;-1.10;99.90;;;;;;5077726;28;20028;-68
2022/01/26 06:41:25;;;;;;;88.75;32.33;;;-1.10;99.90;;;;;;5073389;28;20028;-68
2022/01/26 06:44:00;;;;;;;86.28;31.70;;;-1.10;99.90;;;;;;5085493;28;20020;-68
2022/01/26 06:46:36;;;;;;;81.35;30.48;;;-1.10;99.90;;;;;;5076239;28;20029;-66
2022/01/26 06:51:46;;;;;;;77.68;29.05;;;-0.90;99.90;;;;;;5083336;28;20051;-67
2022/01/26 06:54:11;;;;;;;69.93;27.83;;;-0.90;99.90;;;;;;5077910;28;20025;-66
2022/01/26 06:56:37;;;;;;;71.32;27.98;;;-0.90;99.90;;;;;;5081219;28;20029;-66
2022/01/26 06:59:03;;;;;;;73.70;31.67;;;-0.90;99.90;;;;;;5077909;28;20047;-67
2022/01/26 07:01:28;;;;;;;72.68;27.95;;;-1.00;99.90;;;;;;5078968;28;20111;-66
2022/01/26 07:03:54;;;;;;;68.55;26.67;;;-0.90;99.90;;;;;;5079452;28;20055;-67
2022/01/26 07:06:19;;;;;;;76.60;28.30;;;-0.80;99.90;;;;;;5089045;28;20028;-67
2022/01/26 07:08:46;;;;;;;70.20;29.67;;;-0.70;99.90;;;;;;5073791;28;20040;-66
2022/01/26 07:11:12;;;;;;;69.05;26.98;;;-0.80;99.90;;;;;;5079424;28;20110;-67
2022/01/26 07:13:39;;;;;;;71.72;27.30;;;-0.90;99.90;;;;;;5079161;28;20106;-66
2022/01/26 07:21:33;;;;;;;71.32;26.85;;;-1.00;99.90;;;;;;5082042;28;20125;-67
2022/01/26 07:23:59;;;;;;;65.72;26.73;;;-1.10;99.90;;;;;;5085693;28;20070;-67
2022/01/26 07:26:30;;;;;;;71.75;27.45;;;-1.10;99.90;;;;;;5075521;28;20032;-67
2022/01/26 07:28:58;;;;;;;58.78;26.42;;;-1.10;99.90;;;;;;5070559;28;20079;-67
2022/01/26 07:31:24;;;;;;;61.88;25.77;;;-1.00;99.90;;;;;;5068558;28;20157;-67
2022/01/26 07:33:54;;;;;;;60.03;24.75;;;-1.00;99.90;;;;;;5079460;28;20432;-67
2022/01/26 07:36:20;;;;;;;;;;;-1.00;99.90;;;;;;5088928;28;20140;-67
2022/01/26 07:38:49;;;;;;;55.60;22.38;;;-1.00;99.90;;;;;;5073726;28;19912;-67
2022/01/26 07:41:15;;;;;;;58.45;25.58;;;-1.00;99.90;;;;;;5079921;28;20521;-67
2022/01/26 07:43:40;;;;;;;54.30;23.67;;;-1.00;99.90;;;;;;5080854;28;20063;-68
2022/01/26 07:46:09;;;;;;;59.00;24.65;;;-1.00;99.90;;;;;;5086786;28;20050;-67
2022/01/26 07:48:35;;;;;;;59.70;25.17;;;-1.00;99.90;;;;;;5058160;28;20025;-68
2022/01/26 07:51:02;;;;;;;61.70;27.58;;;-1.00;99.90;;;;;;5063086;28;20557;-68
2022/01/26 07:53:28;;;;;;;57.13;26.48;;;-1.00;99.90;;;;;;5081376;28;20362;-67
2022/01/26 07:55:56;;;;;;;65.55;26.33;;;-1.00;99.90;;;;;;5083487;28;20035;-67
2022/01/26 07:58:22;;;;;;;57.92;25.73;;;-1.00;99.90;;;;;;5075045;28;20070;-68
2022/01/26 08:00:47;;;;;;;66.05;26.27;;;-0.90;99.90;;;;;;5087870;28;20029;-67
2022/01/26 08:03:14;;;;;;;61.45;27.25;;;-0.70;99.90;;;;;;5077656;28;20028;-67
2022/01/26 08:05:40;;;;;;;58.92;25.42;;;-0.80;99.90;;;;;;5080357;28;20094;-67
2022/01/26 08:08:06;;;;;;;59.22;25.70;;;-0.80;99.90;;;;;;5071819;28;20069;-71
2022/01/26 08:10:32;;;;;;;66.80;26.35;;;-0.90;99.90;;;;;;5058598;28;20064;-67
2022/01/26 08:12:57;;;;;;;61.13;27.75;;;-0.90;99.90;;;;;;5086634;28;20465;-68
2022/01/26 08:15:24;;;;;;;59.25;25.38;;;-0.90;99.90;;;;;;5078881;28;20027;-68
2022/01/26 08:17:51;;;;;;;66.28;26.60;;;-0.80;99.90;;;;;;5080427;28;20032;-69
2022/01/26 08:20:17;;;;;;;61.05;26.42;;;-0.80;99.90;;;;;;5075528;28;20075;-70
2022/01/26 08:22:43;;;;;;;68.00;27.88;;;-0.70;99.90;;;;;;5076176;28;20369;-68
2022/01/26 08:25:10;;;;;;;67.10;27.02;;;-0.70;99.90;;;;;;5072567;28;20053;-69
2022/01/26 08:27:43;;;;;;;73.15;26.98;;;-0.70;99.90;;;;;;5076505;28;20392;-68
2022/01/26 08:30:12;;;;;;;69.78;27.95;;;-0.70;99.90;;;;;;5080687;28;20508;-67
2022/01/26 08:32:39;;;;;;;65.70;26.35;;;-0.70;99.90;;;;;;5073039;28;20029;-67
2022/01/26 08:35:05;;;;;;;61.67;26.92;;;-0.70;99.90;;;;;;5071616;28;20067;-68
2022/01/26 08:37:31;;;;;;;72.10;29.55;;;-0.60;99.90;;;;;;5067437;28;20029;-68
2022/01/26 08:39:56;;;;;;;69.90;26.90;;;-0.60;99.90;;;;;;5065861;28;20048;-68
2022/01/26 08:42:22;;;;;;;70.93;28.23;;;-0.60;99.90;;;;;;5079139;28;20021;-68
2022/01/26 08:44:48;;;;;;;70.35;27.90;;;-0.70;99.90;;;;;;5091196;28;20101;-68
2022/01/26 08:47:13;;;;;;;67.28;27.70;;;-0.70;99.90;;;;;;5063068;28;20029;-67
2022/01/26 08:49:39;;;;;;;73.78;29.20;;;-0.70;99.90;;;;;;5068696;28;20041;-67
2022/01/26 08:52:05;;;;;;;64.15;27.00;;;-0.70;99.90;;;;;;5073015;28;20025;-67
2022/01/26 08:54:30;;;;;;;72.80;28.05;;;-0.60;99.90;;;;;;5073362;28;20056;-68
2022/01/26 08:56:56;;;;;;;76.20;28.10;;;-0.60;99.90;;;;;;5068448;28;20461;-68
2022/01/26 08:59:23;;;;;;;72.85;29.33;;;-0.70;99.90;;;;;;5074665;28;20040;-67
2022/01/26 09:01:49;;;;;;;71.30;28.52;;;-0.60;99.90;;;;;;5072964;28;20032;-67
2022/01/26 09:04:15;;;;;;;70.18;28.00;;;-0.50;99.90;;;;;;5074721;28;20027;-68
2022/01/26 09:06:52;;;;;;;66.97;25.85;;;-0.50;99.90;;;;;;5074268;28;20411;-67
2022/01/26 09:09:20;;;;;;;72.50;27.48;;;-0.50;99.90;;;;;;5075142;28;20032;-68
2022/01/26 09:11:47;;;;;;;64.22;27.13;;;-0.50;99.90;;;;;;5074419;28;20025;-67
2022/01/26 09:14:18;;;;;;;67.75;28.17;;;-0.50;99.90;;;;;;5074813;28;20443;-67
2022/01/26 09:16:45;;;;;;;69.95;26.45;;;-0.50;99.90;;;;;;5068971;28;20184;-67
2022/01/26 09:19:26;;;;;;;69.47;27.88;;;-0.40;99.90;;;;;;5074470;28;20044;-67
2022/01/26 09:21:53;;;;;;;69.97;27.02;;;-0.40;99.90;;;;;;5072098;28;20024;-68
2022/01/26 09:24:18;;;;;;;71.75;26.63;;;-0.50;99.90;;;;;;5074623;28;20024;-68
2022/01/26 09:26:44;;;;;;;72.35;27.88;;;-0.50;99.90;;;;;;5073370;28;20028;-69
2022/01/26 09:29:10;;;;;;;67.35;26.40;;;-0.50;99.90;;;;;;5074263;28;20505;-67
2022/01/26 09:31:36;;;;;;;67.88;28.60;;;-0.40;99.90;;;;;;5074059;28;20090;-68
2022/01/26 09:34:02;;;;;;;67.22;27.15;;;-0.40;99.90;;;;;;5074390;28;20029;-68
2022/01/26 09:36:27;;;;;;;70.93;27.77;;;-0.40;99.90;;;;;;5068059;28;20523;-68
2022/01/26 09:38:53;;;;;;;72.85;28.33;;;-0.50;99.90;;;;;;5054031;28;20051;-69
2022/01/26 09:41:19;;;;;;;65.25;26.65;;;-0.50;99.90;;;;;;5054702;28;20079;-68
2022/01/26 09:43:46;;;;;;;61.55;25.60;;;-0.40;99.90;;;;;;5071438;28;20116;-67
2022/01/26 09:46:12;;;;;;;61.95;27.88;;;-0.40;99.90;;;;;;5073867;28;20025;-67
2022/01/26 09:48:39;;;;;;;60.63;25.23;;;-0.30;99.90;;;;;;5073328;28;20029;-68
2022/01/26 09:51:05;;;;;;;63.47;25.08;;;-0.30;99.90;;;;;;5073814;28;20028;-68
2022/01/26 09:53:33;;;;;;;60.17;25.88;;;-0.20;99.90;;;;;;5072599;28;20082;-67
2022/01/26 09:55:59;;;;;;;59.33;25.38;;;-0.10;99.90;;;;;;5072545;28;20025;-67
2022/01/26 09:58:25;;;;;;;55.50;23.38;;;-0.10;99.90;;;;;;5053900;28;20032;-67
2022/01/26 10:01:04;;;;;;;56.05;24.58;;;0.00;99.90;;;;;;5053164;28;20029;-68
2022/01/26 10:03:34;;;;;;;59.45;24.77;;;0.00;99.90;;;;;;5053986;28;20072;-68
2022/01/26 10:06:01;;;;;;;58.95;24.42;;;0.10;99.90;;;;;;5053757;28;20032;-67
2022/01/26 10:08:57;;;;;;;59.63;25.10;;;0.10;99.90;;;;;;5053825;28;20406;-66
2022/01/26 10:17:25;;;;;;;57.83;25.20;;;0.30;99.90;;;;;;5073559;28;20077;-69
2022/01/26 10:19:59;;;;;;;56.55;22.73;;;0.40;99.90;;;;;;5052442;28;20045;-70
2022/01/26 10:22:26;;;;;;;51.40;22.88;;;0.40;99.90;;;;;;5071638;28;20033;-73
2022/01/26 10:25:20;;;;;;;51.88;22.40;;;0.50;99.90;;;;;;5073371;28;20453;-71
2022/01/26 10:27:49;;;;;;;51.55;22.73;;;0.50;99.90;;;;;;5072958;28;20031;-72
2022/01/26 10:30:17;;;;;;;59.00;24.58;;;0.50;99.90;;;;;;5071775;28;20059;-71
2022/01/26 10:32:45;;;;;;;53.80;24.80;;;0.50;99.90;;;;;;5072757;28;20028;-72
2022/01/26 10:35:13;;;;;;;53.65;23.50;;;0.50;99.90;;;;;;5057075;28;20029;-72
2022/01/26 10:37:48;;;;;;;58.83;25.83;;;0.60;99.90;;;;;;5064641;28;20040;-71
2022/01/26 10:40:18;;;;;;;49.17;22.70;;;0.60;99.90;;;;;;5072571;28;20032;-71
2022/01/26 10:43:07;;;;;;;;;;;0.60;99.90;;;;;;5072675;28;20029;-71
2022/01/26 10:45:49;;;;;;;54.65;23.05;;;0.60;99.90;;;;;;5072765;28;20322;-70
2022/01/26 10:48:24;;;;;;;49.75;22.60;;;0.70;99.90;;;;;;5054965;28;20029;-71
2022/01/26 10:51:32;;;;;;;46.38;22.60;;;0.70;99.90;;;;;;5052268;28;20040;-70
2022/01/26 10:54:08;;;;;;;51.65;22.55;;;0.70;99.90;;;;;;5053199;28;20036;-70
2022/01/26 10:56:34;;;;;;;48.75;22.35;;;0.70;99.90;;;;;;5069675;28;20024;-67
2022/01/26 10:59:00;;;;;;;58.17;24.40;;;0.80;99.90;;;;;;5072830;28;20377;-69
2022/01/26 11:01:26;;;;;;;49.35;22.13;;;0.90;99.90;;;;;;5072985;28;20032;-70
2022/01/26 11:03:52;;;;;;;49.55;22.38;;;0.90;99.90;;;;;;5071528;28;20028;-70
2022/01/26 11:06:19;;;;;;;50.40;23.02;;;0.90;99.90;;;;;;5068441;28;20028;-70
2022/01/26 11:08:46;;;;;;;55.28;23.75;;;0.90;99.90;;;;;;5053276;28;20025;-70
2022/01/26 11:11:22;;;;;;;53.20;23.15;;;0.80;99.90;;;;;;5073159;28;20105;-71
2022/01/26 11:13:48;;;;;;;49.78;22.33;;;0.70;99.90;;;;;;5072074;28;20116;-70
2022/01/26 11:16:16;;;;;;;46.15;21.67;;;0.70;99.90;;;;;;5072628;28;20095;-71
2022/01/26 11:18:53;;;;;;;48.40;22.00;;;0.70;99.90;;;;;;5069028;28;20035;-71
2022/01/26 11:21:31;;;;;;;49.50;22.67;;;0.70;99.90;;;;;;5052637;28;20059;-73
2022/01/26 11:24:21;;;;;;;50.45;23.08;;;0.70;99.90;;;;;;5057775;28;20028;-72
2022/01/26 11:27:05;;;;;;;58.13;24.48;;;0.60;99.90;;;;;;5074107;28;20024;-72
2022/01/26 11:29:34;;;;;;;55.10;23.65;;;0.70;99.90;;;;;;5073988;28;20049;-73
2022/01/26 11:32:14;;;;;;;64.43;26.10;;;0.80;99.90;;;;;;5069525;28;20033;-73
2022/01/26 11:34:41;;;;;;;58.40;27.30;;;0.70;99.90;;;;;;5071800;28;20056;-73
2022/01/26 11:37:11;;;;;;;67.63;27.40;;;0.60;99.90;;;;;;5073039;28;20511;-72
2022/01/26 11:45:04;;;;;;;66.00;24.95;;;0.70;99.90;;;;;;5057021;28;20036;-73
2022/01/26 11:45:26;;;;;;;64.28;26.40;;;0.70;99.90;;;;;;5069474;28;20032;-72
2022/01/26 11:48:08;;;;;;;65.75;27.45;;;0.70;99.90;;;;;;5073196;28;20119;-74
2022/01/26 11:50:35;;;;;;;70.88;26.30;;;0.60;99.90;;;;;;5073404;28;20040;-71
2022/01/26 11:53:15;;;;;;;72.03;28.00;;;0.60;99.90;;;;;;5070801;28;20036;-71
2022/01/26 11:55:48;;;;;;;71.07;27.48;;;0.50;99.90;;;;;;5070848;28;20442;-73
2022/01/26 11:58:29;;;;;;;78.13;29.73;;;0.50;99.90;;;;;;5072303;28;20423;-74
2022/01/26 12:03:47;;;;;;;77.68;26.98;;;0.20;99.90;;;;;;5077118;28;20141;-77
2022/01/26 12:06:24;;;;;;;69.88;27.70;;;0.20;99.90;;;;;;5084513;28;20032;-72
2022/01/26 12:08:50;;;;;;;70.10;27.20;;;0.10;99.90;;;;;;5084586;28;20024;-74
2022/01/26 12:11:16;;;;;;;68.60;27.13;;;0.00;99.90;;;;;;5081549;28;20033;-72
2022/01/26 12:13:44;;;;;;;66.28;28.17;;;0.00;99.90;;;;;;5073007;28;20381;-73
2022/01/26 12:16:17;;;;;;;70.38;27.55;;;0.00;99.90;;;;;;5087626;28;20024;-75
2022/01/26 12:18:55;;;;;;;75.93;27.95;;;0.00;99.90;;;;;;5064007;28;20020;-76
2022/01/26 12:37:59;;;;;;;64.13;28.05;;;-0.10;99.90;;;;;;5081872;28;20032;-73
2022/01/26 12:43:37;;;;;;;66.10;24.88;;;-0.10;99.90;;;;;;5077655;28;20031;-73
2022/01/26 12:46:08;;;;;;;63.85;25.02;;;-0.10;99.90;;;;;;5090963;28;20032;-72
2022/01/26 12:48:37;;;;;;;64.05;25.48;;;-0.10;99.90;;;;;;5076314;28;20040;-73
2022/01/26 12:51:06;;;;;;;56.78;23.48;;;-0.10;99.90;;;;;;5069869;28;20028;-77
2022/01/26 12:53:35;;;;;;;54.97;24.30;;;-0.10;99.90;;;;;;5083436;28;20029;-75
2022/01/26 12:56:03;;;;;;;54.25;23.10;;;0.00;99.90;;;;;;5087809;28;20105;-72
2022/01/26 12:58:38;;;;;;;52.80;23.50;;;0.00;99.90;;;;;;5090544;28;20028;-72
2022/01/26 13:01:08;;;;;;;49.85;21.50;;;0.10;99.90;;;;;;5061263;28;20055;-73
2022/01/26 13:03:38;;;;;;;56.38;23.65;;;0.10;99.90;;;;;;5077761;28;20395;-72
2022/01/26 13:06:08;;;;;;;52.95;21.70;;;0.10;99.90;;;;;;5079222;28;20048;-74
2022/01/26 13:08:48;;;;;;;58.22;21.90;;;0.10;99.90;;;;;;5074679;28;20055;-72
2022/01/26 13:11:26;;;;;;;59.45;24.02;;;0.10;99.90;;;;;;5086299;28;20374;-73
2022/01/26 13:14:17;;;;;;;58.75;22.90;;;0.10;99.90;;;;;;5076388;28;20024;-70
2022/01/26 13:16:55;;;;;;;56.20;23.38;;;0.20;99.90;;;;;;5063464;28;20024;-73
2022/01/26 13:33:16;;;;;;;50.50;22.38;;;0.20;99.90;;;;;;5064010;28;20468;-71
2022/01/26 13:59:52;;;;;;;61.92;25.42;;;0.00;99.90;;;;;;5077455;28;20040;-74
2022/01/26 14:02:18;;;;;;;58.30;23.48;;;-0.10;99.90;;;;;;5092067;28;20027;-73
2022/01/26 14:04:44;;;;;;;60.67;23.38;;;-0.10;99.90;;;;;;5076334;28;20115;-72
2022/01/26 14:07:09;;;;;;;62.80;24.20;;;-0.20;99.90;;;;;;5085168;28;20036;-73
2022/01/26 14:09:37;;;;;;;58.40;23.77;;;-0.30;99.90;;;;;;5063914;28;20044;-72
2022/01/26 14:12:03;;;;;;;62.65;24.67;;;-0.20;99.90;;;;;;5075002;28;20464;-72
2022/01/26 14:14:36;;;;;;;62.92;24.63;;;-0.30;99.90;;;;;;5073522;28;20029;-71
2022/01/26 14:17:04;;;;;;;60.30;24.45;;;-0.20;99.90;;;;;;5075215;28;20047;-73
2022/01/26 14:22:32;;;;;;;58.25;20.13;;;-0.20;99.90;;;;;;5062820;28;20093;-72
2022/01/26 14:27:26;;;;;;;58.70;22.00;;;-0.40;99.90;;;;;;5087417;28;20055;-73
2022/01/26 14:35:50;;;;;;;55.50;22.48;;;-0.50;99.90;;;;;;5071661;28;20044;-75
2022/01/26 14:53:01;;;;;;;52.42;21.05;;;-0.60;99.90;;;;;;5084818;28;20026;-74
2022/01/26 15:29:54;;;;;;;58.88;22.27;;;-0.80;99.90;;;;;;5074968;28;20040;-72
2022/01/26 15:33:28;;;;;;;49.72;19.50;;;-0.90;99.90;;;;;;5073980;28;20040;-72
2022/01/26 15:41:45;;;;;;;49.05;21.55;;;-0.90;99.90;;;;;;5077179;28;20546;-72
2022/01/26 15:51:56;;;;;;;43.35;18.30;;;-0.90;99.90;;;;;;5079340;28;20103;-73
2022/01/26 16:07:52;;;;;;;45.38;18.10;;;-0.90;99.90;;;;;;5070174;28;20488;-71
2022/01/26 17:34:37;;;;;;;61.00;24.75;;;-0.90;99.90;;;;;;5078867;28;20138;-78
2022/01/26 17:43:17;;;;;;;56.50;22.92;;;-0.80;99.90;;;;;;5090260;28;20024;-71
2022/01/26 18:16:05;;;;;;;63.17;23.90;;;-0.80;99.90;;;;;;5065196;28;20032;-76
2022/01/26 18:26:46;;;;;;;61.40;23.88;;;-0.90;99.90;;;;;;5080105;28;20085;-78
2022/01/26 18:32:02;;;;;;;60.25;23.38;;;-0.80;99.90;;;;;;5091733;28;20044;-81
2022/01/26 18:50:38;;;;;;;56.85;22.67;;;-0.80;99.90;;;;;;5069008;28;20119;-76
2022/01/26 18:53:04;;;;;;;55.60;23.45;;;-0.80;99.90;;;;;;5080323;28;20107;-76
2022/01/26 18:55:30;;;;;;;62.17;22.80;;;-0.80;99.90;;;;;;5089503;28;20124;-76
2022/01/26 18:57:56;;;;;;;64.35;24.40;;;-0.80;99.90;;;;;;5074666;28;20123;-74
2022/01/26 19:00:21;;;;;;;60.05;24.27;;;-0.90;99.90;;;;;;5086702;28;20420;-73
2022/01/26 19:02:47;;;;;;;62.83;24.48;;;-0.80;99.90;;;;;;5078290;28;20302;-78
2022/01/26 19:05:13;;;;;;;60.88;23.60;;;-0.70;99.90;;;;;;5077996;28;20097;-80
2022/01/26 19:07:39;;;;;;;66.93;24.08;;;-0.80;99.90;;;;;;5074250;28;20021;-78
2022/01/26 19:10:05;;;;;;;58.58;22.42;;;-0.80;99.90;;;;;;5088270;28;20032;-76
2022/01/26 19:12:34;;;;;;;58.20;23.67;;;-0.90;99.90;;;;;;5072497;28;20035;-75
2022/01/26 19:15:04;;;;;;;60.47;22.35;;;-1.00;99.90;;;;;;5063434;28;20036;-79
2022/01/26 19:17:39;;;;;;;57.67;23.20;;;-1.00;99.90;;;;;;5064505;28;20033;-76
2022/01/26 19:22:48;;;;;;;56.92;21.55;;;-0.90;99.90;;;;;;5083071;28;20027;-82
2022/01/26 19:25:30;;;;;;;68.30;25.42;;;-1.00;99.90;;;;;;5086837;28;20032;-84
2022/01/26 19:51:39;;;;;;;57.22;22.50;;;-0.90;99.90;;;;;;5088135;28;20054;-75